sensor_id;sensor_type;location;lat;lon;timestamp;P1;durP1;ratioP1;P2;durP2;ratioP2
76157;SDS011;64907;51.574;6.502;2023-02-01T00:00:49;19.13;;;3.88;;
76157;SDS011;64907;51.574;6.502;2023-02-01T00:03:14;15.55;;;5.90;;
76157;SDS011;64907;51.574;6.502;2023-02-01T00:05:39;19.63;;;5.03;;
76157;SDS011;64907;51.574;6.502;2023-02-01T00:08:13;18.85;;;4.00;;
76157;SDS011;64907;51.574;6.502;2023-02-01T00:10:38;12.50;;;4.15;;
76157;SDS011;64907;51.574;6.502;2023-02-01T00:13:03;16.38;;;4.05;;
76157;SDS011;64907;51.574;6.502;2023-02-01T00:15:28;14.47;;;4.03;;
76157;SDS011;64907;51.574;6.502;2023-02-01T00:17:54;21.88;;;4.60;;
76157;SDS011;64907;51.574;6.502;2023-02-01T00:20:19;24.42;;;4.88;;
76157;SDS011;64907;51.574;6.502;2023-02-01T00:22:44;17.80;;;5.22;;
76157;SDS011;64907;51.574;6.502;2023-02-01T00:25:10;22.37;;;5.53;;
76157;SDS011;64907;51.574;6.502;2023-02-01T00:27:37;28.05;;;5.50;;
76157;SDS011;64907;51.574;6.502;2023-02-01T00:30:03;25.50;;;5.40;;
76157;SDS011;64907;51.574;6.502;2023-02-01T00:32:28;24.45;;;5.20;;
76157;SDS011;64907;51.574;6.502;2023-02-01T00:34:53;19.10;;;5.18;;
76157;SDS011;64907;51.574;6.502;2023-02-01T00:37:18;24.27;;;5.20;;
76157;SDS011;64907;51.574;6.502;2023-02-01T00:39:43;14.80;;;4.95;;
76157;SDS011;64907;51.574;6.502;2023-02-01T00:42:09;15.43;;;5.07;;
76157;SDS011;64907;51.574;6.502;2023-02-01T00:44:34;22.85;;;6.00;;
76157;SDS011;64907;51.574;6.502;2023-02-01T00:47:00;25.40;;;6.45;;
76157;SDS011;64907;51.574;6.502;2023-02-01T00:49:25;22.40;;;5.63;;
76157;SDS011;64907;51.574;6.502;2023-02-01T00:51:52;19.48;;;5.93;;
76157;SDS011;64907;51.574;6.502;2023-02-01T00:54:17;24.05;;;7.80;;
76157;SDS011;64907;51.574;6.502;2023-02-01T00:56:42;24.60;;;6.28;;
76157;SDS011;64907;51.574;6.502;2023-02-01T00:59:10;11.95;;;5.35;;
76157;SDS011;64907;51.574;6.502;2023-02-01T01:01:36;15.75;;;5.60;;
76157;SDS011;64907;51.574;6.502;2023-02-01T01:04:02;23.63;;;6.68;;
76157;SDS011;64907;51.574;6.502;2023-02-01T01:06:31;19.90;;;4.90;;
76157;SDS011;64907;51.574;6.502;2023-02-01T01:08:57;17.10;;;4.55;;
76157;SDS011;64907;51.574;6.502;2023-02-01T01:11:23;23.45;;;5.63;;
76157;SDS011;64907;51.574;6.502;2023-02-01T01:13:49;15.55;;;5.88;;
76157;SDS011;64907;51.574;6.502;2023-02-01T01:16:15;14.32;;;5.30;;
76157;SDS011;64907;51.574;6.502;2023-02-01T01:18:41;20.33;;;5.80;;
76157;SDS011;64907;51.574;6.502;2023-02-01T01:21:09;14.60;;;4.93;;
76157;SDS011;64907;51.574;6.502;2023-02-01T01:23:34;12.95;;;5.18;;
76157;SDS011;64907;51.574;6.502;2023-02-01T01:26:00;15.05;;;5.05;;
76157;SDS011;64907;51.574;6.502;2023-02-01T01:28:25;19.98;;;5.55;;
76157;SDS011;64907;51.574;6.502;2023-02-01T01:30:52;16.45;;;5.20;;
76157;SDS011;64907;51.574;6.502;2023-02-01T01:33:18;21.80;;;5.18;;
76157;SDS011;64907;51.574;6.502;2023-02-01T01:35:43;18.23;;;5.05;;
76157;SDS011;64907;51.574;6.502;2023-02-01T01:38:09;15.43;;;4.57;;
76157;SDS011;64907;51.574;6.502;2023-02-01T01:40:35;22.40;;;5.60;;
76157;SDS011;64907;51.574;6.502;2023-02-01T01:43:00;16.48;;;4.72;;
76157;SDS011;64907;51.574;6.502;2023-02-01T01:45:30;16.33;;;5.35;;
76157;SDS011;64907;51.574;6.502;2023-02-01T01:47:56;18.02;;;5.65;;
76157;SDS011;64907;51.574;6.502;2023-02-01T01:50:30;15.73;;;5.13;;
76157;SDS011;64907;51.574;6.502;2023-02-01T01:52:57;20.20;;;5.10;;
76157;SDS011;64907;51.574;6.502;2023-02-01T01:55:24;15.80;;;4.30;;
76157;SDS011;64907;51.574;6.502;2023-02-01T01:57:52;19.20;;;5.15;;
76157;SDS011;64907;51.574;6.502;2023-02-01T02:00:18;17.90;;;3.95;;
76157;SDS011;64907;51.574;6.502;2023-02-01T02:02:44;17.73;;;3.97;;
76157;SDS011;64907;51.574;6.502;2023-02-01T02:05:11;21.80;;;5.43;;
76157;SDS011;64907;51.574;6.502;2023-02-01T02:07:39;20.85;;;4.47;;
76157;SDS011;64907;51.574;6.502;2023-02-01T02:10:14;18.95;;;4.25;;
76157;SDS011;64907;51.574;6.502;2023-02-01T02:12:40;19.63;;;3.50;;
76157;SDS011;64907;51.574;6.502;2023-02-01T02:15:06;13.20;;;3.47;;
76157;SDS011;64907;51.574;6.502;2023-02-01T02:21:05;21.35;;;4.15;;
76157;SDS011;64907;51.574;6.502;2023-02-01T02:36:24;17.10;;;3.97;;
76157;SDS011;64907;51.574;6.502;2023-02-01T02:41:27;18.88;;;3.55;;
76157;SDS011;64907;51.574;6.502;2023-02-01T02:44:34;17.25;;;3.92;;
76157;SDS011;64907;51.574;6.502;2023-02-01T02:47:27;18.88;;;3.65;;
76157;SDS011;64907;51.574;6.502;2023-02-01T02:52:43;21.85;;;4.97;;
76157;SDS011;64907;51.574;6.502;2023-02-01T02:55:29;11.27;;;3.45;;
76157;SDS011;64907;51.574;6.502;2023-02-01T02:57:55;18.25;;;3.90;;
76157;SDS011;64907;51.574;6.502;2023-02-01T03:00:39;26.38;;;4.13;;
76157;SDS011;64907;51.574;6.502;2023-02-01T03:03:23;15.70;;;4.03;;
76157;SDS011;64907;51.574;6.502;2023-02-01T03:06:11;18.15;;;3.72;;
76157;SDS011;64907;51.574;6.502;2023-02-01T03:08:37;21.85;;;4.20;;
76157;SDS011;64907;51.574;6.502;2023-02-01T03:11:06;17.83;;;3.65;;
76157;SDS011;64907;51.574;6.502;2023-02-01T03:16:09;15.07;;;3.83;;
76157;SDS011;64907;51.574;6.502;2023-02-01T03:21:08;19.95;;;4.10;;
76157;SDS011;64907;51.574;6.502;2023-02-01T03:23:35;21.48;;;4.07;;
76157;SDS011;64907;51.574;6.502;2023-02-01T03:26:01;18.48;;;4.60;;
76157;SDS011;64907;51.574;6.502;2023-02-01T03:28:30;20.50;;;4.78;;
76157;SDS011;64907;51.574;6.502;2023-02-01T03:30:56;20.92;;;4.60;;
76157;SDS011;64907;51.574;6.502;2023-02-01T03:33:22;25.73;;;5.00;;
76157;SDS011;64907;51.574;6.502;2023-02-01T03:38:24;17.30;;;4.03;;
76157;SDS011;64907;51.574;6.502;2023-02-01T03:40:52;17.83;;;4.85;;
76157;SDS011;64907;51.574;6.502;2023-02-01T03:43:18;22.00;;;4.43;;
76157;SDS011;64907;51.574;6.502;2023-02-01T03:45:46;17.45;;;4.28;;
76157;SDS011;64907;51.574;6.502;2023-02-01T03:48:13;16.83;;;4.43;;
76157;SDS011;64907;51.574;6.502;2023-02-01T03:50:39;21.42;;;4.97;;
76157;SDS011;64907;51.574;6.502;2023-02-01T03:53:10;22.40;;;5.60;;
76157;SDS011;64907;51.574;6.502;2023-02-01T03:55:37;20.48;;;4.80;;
76157;SDS011;64907;51.574;6.502;2023-02-01T04:00:34;25.17;;;4.75;;
76157;SDS011;64907;51.574;6.502;2023-02-01T04:02:59;15.23;;;3.95;;
76157;SDS011;64907;51.574;6.502;2023-02-01T04:05:24;14.82;;;3.78;;
76157;SDS011;64907;51.574;6.502;2023-02-01T04:07:49;21.50;;;4.13;;
76157;SDS011;64907;51.574;6.502;2023-02-01T04:10:15;20.73;;;3.47;;
76157;SDS011;64907;51.574;6.502;2023-02-01T04:12:40;20.15;;;4.13;;
76157;SDS011;64907;51.574;6.502;2023-02-01T04:15:06;21.65;;;4.10;;
76157;SDS011;64907;51.574;6.502;2023-02-01T04:17:31;23.48;;;4.72;;
76157;SDS011;64907;51.574;6.502;2023-02-01T04:19:56;19.87;;;4.50;;
76157;SDS011;64907;51.574;6.502;2023-02-01T04:22:21;22.15;;;4.60;;
76157;SDS011;64907;51.574;6.502;2023-02-01T04:24:47;24.60;;;4.00;;
76157;SDS011;64907;51.574;6.502;2023-02-01T04:27:12;12.27;;;3.95;;
76157;SDS011;64907;51.574;6.502;2023-02-01T04:29:37;14.45;;;4.15;;
76157;SDS011;64907;51.574;6.502;2023-02-01T04:32:03;21.67;;;4.72;;
76157;SDS011;64907;51.574;6.502;2023-02-01T04:34:29;21.10;;;3.90;;
76157;SDS011;64907;51.574;6.502;2023-02-01T04:36:54;27.30;;;4.40;;
76157;SDS011;64907;51.574;6.502;2023-02-01T04:39:19;17.20;;;3.97;;
76157;SDS011;64907;51.574;6.502;2023-02-01T04:41:44;23.65;;;4.88;;
76157;SDS011;64907;51.574;6.502;2023-02-01T04:44:13;24.30;;;4.70;;
76157;SDS011;64907;51.574;6.502;2023-02-01T04:46:38;21.73;;;3.78;;
76157;SDS011;64907;51.574;6.502;2023-02-01T04:49:03;20.27;;;4.97;;
76157;SDS011;64907;51.574;6.502;2023-02-01T04:51:29;21.90;;;4.22;;
76157;SDS011;64907;51.574;6.502;2023-02-01T04:53:55;20.40;;;4.30;;
76157;SDS011;64907;51.574;6.502;2023-02-01T04:56:20;17.67;;;3.50;;
76157;SDS011;64907;51.574;6.502;2023-02-01T04:58:45;21.70;;;4.13;;
76157;SDS011;64907;51.574;6.502;2023-02-01T05:01:11;19.23;;;3.83;;
76157;SDS011;64907;51.574;6.502;2023-02-01T05:03:36;17.83;;;3.73;;
76157;SDS011;64907;51.574;6.502;2023-02-01T05:06:01;19.58;;;4.20;;
76157;SDS011;64907;51.574;6.502;2023-02-01T05:08:28;19.10;;;5.57;;
76157;SDS011;64907;51.574;6.502;2023-02-01T05:10:54;18.63;;;4.90;;
76157;SDS011;64907;51.574;6.502;2023-02-01T05:13:19;18.65;;;4.28;;
76157;SDS011;64907;51.574;6.502;2023-02-01T05:16:03;21.00;;;4.00;;
76157;SDS011;64907;51.574;6.502;2023-02-01T05:18:29;24.52;;;3.95;;
76157;SDS011;64907;51.574;6.502;2023-02-01T05:20:54;17.60;;;3.80;;
76157;SDS011;64907;51.574;6.502;2023-02-01T05:23:19;26.15;;;5.10;;
76157;SDS011;64907;51.574;6.502;2023-02-01T05:25:44;22.50;;;4.85;;
76157;SDS011;64907;51.574;6.502;2023-02-01T05:28:09;23.27;;;4.50;;
76157;SDS011;64907;51.574;6.502;2023-02-01T05:30:35;25.43;;;4.30;;
76157;SDS011;64907;51.574;6.502;2023-02-01T05:33:00;33.63;;;5.03;;
76157;SDS011;64907;51.574;6.502;2023-02-01T05:35:25;27.05;;;4.50;;
76157;SDS011;64907;51.574;6.502;2023-02-01T05:37:50;20.37;;;3.90;;
76157;SDS011;64907;51.574;6.502;2023-02-01T05:40:16;19.90;;;4.43;;
76157;SDS011;64907;51.574;6.502;2023-02-01T05:42:41;27.67;;;4.88;;
76157;SDS011;64907;51.574;6.502;2023-02-01T05:45:06;23.70;;;4.80;;
76157;SDS011;64907;51.574;6.502;2023-02-01T05:47:32;28.90;;;4.90;;
76157;SDS011;64907;51.574;6.502;2023-02-01T05:49:57;25.23;;;5.10;;
76157;SDS011;64907;51.574;6.502;2023-02-01T05:52:23;23.33;;;6.03;;
76157;SDS011;64907;51.574;6.502;2023-02-01T05:54:49;26.27;;;4.90;;
76157;SDS011;64907;51.574;6.502;2023-02-01T05:57:14;20.75;;;4.85;;
76157;SDS011;64907;51.574;6.502;2023-02-01T05:59:39;29.55;;;5.03;;
76157;SDS011;64907;51.574;6.502;2023-02-01T06:02:10;24.17;;;4.90;;
76157;SDS011;64907;51.574;6.502;2023-02-01T06:04:35;25.20;;;4.03;;
76157;SDS011;64907;51.574;6.502;2023-02-01T06:07:00;20.80;;;4.72;;
76157;SDS011;64907;51.574;6.502;2023-02-01T06:09:26;25.35;;;4.93;;
76157;SDS011;64907;51.574;6.502;2023-02-01T06:11:51;23.83;;;4.40;;
76157;SDS011;64907;51.574;6.502;2023-02-01T06:14:16;20.40;;;4.90;;
76157;SDS011;64907;51.574;6.502;2023-02-01T06:16:41;25.35;;;5.05;;
76157;SDS011;64907;51.574;6.502;2023-02-01T06:19:07;20.60;;;4.57;;
76157;SDS011;64907;51.574;6.502;2023-02-01T06:21:32;31.30;;;6.60;;
76157;SDS011;64907;51.574;6.502;2023-02-01T06:23:58;21.15;;;4.70;;
76157;SDS011;64907;51.574;6.502;2023-02-01T06:26:23;25.45;;;4.43;;
76157;SDS011;64907;51.574;6.502;2023-02-01T06:28:49;30.10;;;4.38;;
76157;SDS011;64907;51.574;6.502;2023-02-01T06:31:14;18.90;;;4.25;;
76157;SDS011;64907;51.574;6.502;2023-02-01T06:33:39;18.35;;;3.83;;
76157;SDS011;64907;51.574;6.502;2023-02-01T06:36:05;22.55;;;5.15;;
76157;SDS011;64907;51.574;6.502;2023-02-01T06:38:31;30.67;;;5.45;;
76157;SDS011;64907;51.574;6.502;2023-02-01T06:41:00;28.20;;;4.40;;
76157;SDS011;64907;51.574;6.502;2023-02-01T06:46:04;23.65;;;4.63;;
76157;SDS011;64907;51.574;6.502;2023-02-01T06:48:30;29.55;;;4.40;;
76157;SDS011;64907;51.574;6.502;2023-02-01T06:50:57;20.35;;;4.45;;
76157;SDS011;64907;51.574;6.502;2023-02-01T06:53:22;18.17;;;4.28;;
76157;SDS011;64907;51.574;6.502;2023-02-01T06:58:23;22.90;;;4.95;;
76157;SDS011;64907;51.574;6.502;2023-02-01T07:00:48;28.75;;;5.22;;
76157;SDS011;64907;51.574;6.502;2023-02-01T07:03:14;21.25;;;5.03;;
76157;SDS011;64907;51.574;6.502;2023-02-01T07:05:39;19.35;;;5.20;;
76157;SDS011;64907;51.574;6.502;2023-02-01T07:08:04;25.70;;;5.27;;
76157;SDS011;64907;51.574;6.502;2023-02-01T07:10:29;20.58;;;4.85;;
76157;SDS011;64907;51.574;6.502;2023-02-01T07:12:58;18.20;;;5.47;;
76157;SDS011;64907;51.574;6.502;2023-02-01T07:15:24;22.88;;;4.95;;
76157;SDS011;64907;51.574;6.502;2023-02-01T07:17:49;25.30;;;5.43;;
76157;SDS011;64907;51.574;6.502;2023-02-01T07:20:15;23.73;;;5.32;;
76157;SDS011;64907;51.574;6.502;2023-02-01T07:22:40;24.15;;;4.50;;
76157;SDS011;64907;51.574;6.502;2023-02-01T07:25:07;24.40;;;5.10;;
76157;SDS011;64907;51.574;6.502;2023-02-01T07:27:35;22.35;;;5.38;;
76157;SDS011;64907;51.574;6.502;2023-02-01T07:30:01;25.45;;;5.18;;
76157;SDS011;64907;51.574;6.502;2023-02-01T07:32:27;20.65;;;5.28;;
76157;SDS011;64907;51.574;6.502;2023-02-01T07:34:52;17.25;;;4.28;;
76157;SDS011;64907;51.574;6.502;2023-02-01T07:37:17;23.37;;;5.57;;
76157;SDS011;64907;51.574;6.502;2023-02-01T07:39:43;27.33;;;5.65;;
76157;SDS011;64907;51.574;6.502;2023-02-01T07:42:08;27.73;;;6.35;;
76157;SDS011;64907;51.574;6.502;2023-02-01T07:44:33;18.23;;;5.30;;
76157;SDS011;64907;51.574;6.502;2023-02-01T07:46:58;26.10;;;5.07;;
76157;SDS011;64907;51.574;6.502;2023-02-01T07:49:24;17.40;;;5.17;;
76157;SDS011;64907;51.574;6.502;2023-02-01T07:51:49;29.67;;;5.20;;
76157;SDS011;64907;51.574;6.502;2023-02-01T07:54:14;25.15;;;4.93;;
76157;SDS011;64907;51.574;6.502;2023-02-01T07:56:39;27.13;;;6.05;;
76157;SDS011;64907;51.574;6.502;2023-02-01T07:59:06;26.40;;;5.38;;
76157;SDS011;64907;51.574;6.502;2023-02-01T08:01:32;28.40;;;5.28;;
76157;SDS011;64907;51.574;6.502;2023-02-01T08:03:58;19.42;;;5.43;;
76157;SDS011;64907;51.574;6.502;2023-02-01T08:06:26;21.30;;;5.35;;
76157;SDS011;64907;51.574;6.502;2023-02-01T08:08:52;29.67;;;5.90;;
76157;SDS011;64907;51.574;6.502;2023-02-01T08:11:18;14.50;;;4.85;;
76157;SDS011;64907;51.574;6.502;2023-02-01T08:13:43;29.55;;;5.13;;
76157;SDS011;64907;51.574;6.502;2023-02-01T08:16:09;16.60;;;4.82;;
76157;SDS011;64907;51.574;6.502;2023-02-01T08:18:36;24.42;;;5.35;;
76157;SDS011;64907;51.574;6.502;2023-02-01T08:23:29;28.13;;;5.88;;
76157;SDS011;64907;51.574;6.502;2023-02-01T08:26:03;35.28;;;6.10;;
76157;SDS011;64907;51.574;6.502;2023-02-01T08:28:28;28.95;;;6.07;;
76157;SDS011;64907;51.574;6.502;2023-02-01T08:31:08;33.47;;;6.70;;
76157;SDS011;64907;51.574;6.502;2023-02-01T08:33:34;28.98;;;6.13;;
76157;SDS011;64907;51.574;6.502;2023-02-01T08:36:01;22.50;;;4.75;;
76157;SDS011;64907;51.574;6.502;2023-02-01T08:38:27;29.13;;;5.68;;
76157;SDS011;64907;51.574;6.502;2023-02-01T08:40:52;22.48;;;5.60;;
76157;SDS011;64907;51.574;6.502;2023-02-01T08:43:18;18.10;;;4.97;;
76157;SDS011;64907;51.574;6.502;2023-02-01T08:45:44;24.80;;;4.75;;
76157;SDS011;64907;51.574;6.502;2023-02-01T08:48:09;30.00;;;5.57;;
76157;SDS011;64907;51.574;6.502;2023-02-01T08:50:34;23.93;;;4.93;;
76157;SDS011;64907;51.574;6.502;2023-02-01T08:52:59;26.73;;;6.07;;
76157;SDS011;64907;51.574;6.502;2023-02-01T08:55:24;22.40;;;5.70;;
76157;SDS011;64907;51.574;6.502;2023-02-01T08:57:51;28.38;;;5.68;;
76157;SDS011;64907;51.574;6.502;2023-02-01T09:00:17;26.77;;;6.03;;
76157;SDS011;64907;51.574;6.502;2023-02-01T09:02:42;32.10;;;5.60;;
76157;SDS011;64907;51.574;6.502;2023-02-01T09:05:07;19.83;;;4.82;;
76157;SDS011;64907;51.574;6.502;2023-02-01T09:07:33;17.38;;;4.25;;
76157;SDS011;64907;51.574;6.502;2023-02-01T09:09:58;22.02;;;5.15;;
76157;SDS011;64907;51.574;6.502;2023-02-01T09:12:26;19.00;;;4.63;;
76157;SDS011;64907;51.574;6.502;2023-02-01T09:14:51;27.38;;;5.82;;
76157;SDS011;64907;51.574;6.502;2023-02-01T09:17:16;26.98;;;5.80;;
76157;SDS011;64907;51.574;6.502;2023-02-01T09:19:41;25.35;;;5.43;;
76157;SDS011;64907;51.574;6.502;2023-02-01T09:22:06;28.05;;;6.68;;
76157;SDS011;64907;51.574;6.502;2023-02-01T09:24:31;29.27;;;6.00;;
76157;SDS011;64907;51.574;6.502;2023-02-01T09:26:57;15.55;;;5.10;;
76157;SDS011;64907;51.574;6.502;2023-02-01T09:29:22;32.97;;;5.97;;
76157;SDS011;64907;51.574;6.502;2023-02-01T09:31:47;25.90;;;6.05;;
76157;SDS011;64907;51.574;6.502;2023-02-01T09:34:13;32.00;;;6.28;;
76157;SDS011;64907;51.574;6.502;2023-02-01T09:36:39;28.52;;;6.72;;
76157;SDS011;64907;51.574;6.502;2023-02-01T09:39:04;24.88;;;5.55;;
76157;SDS011;64907;51.574;6.502;2023-02-01T09:46:38;24.33;;;5.22;;
76157;SDS011;64907;51.574;6.502;2023-02-01T09:49:05;26.48;;;5.88;;
76157;SDS011;64907;51.574;6.502;2023-02-01T09:51:36;26.52;;;5.05;;
76157;SDS011;64907;51.574;6.502;2023-02-01T09:54:16;24.33;;;5.20;;
76157;SDS011;64907;51.574;6.502;2023-02-01T09:56:49;22.75;;;5.03;;
76157;SDS011;64907;51.574;6.502;2023-02-01T10:01:46;26.15;;;5.65;;
76157;SDS011;64907;51.574;6.502;2023-02-01T10:04:12;30.20;;;5.43;;
76157;SDS011;64907;51.574;6.502;2023-02-01T10:14:30;20.70;;;5.68;;
76157;SDS011;64907;51.574;6.502;2023-02-01T10:17:08;23.70;;;5.25;;
76157;SDS011;64907;51.574;6.502;2023-02-01T10:22:21;20.00;;;4.70;;
76157;SDS011;64907;51.574;6.502;2023-02-01T10:27:19;25.02;;;5.30;;
76157;SDS011;64907;51.574;6.502;2023-02-01T10:32:18;16.60;;;4.32;;
76157;SDS011;64907;51.574;6.502;2023-02-01T10:34:46;24.50;;;6.10;;
76157;SDS011;64907;51.574;6.502;2023-02-01T10:37:16;22.80;;;5.03;;
76157;SDS011;64907;51.574;6.502;2023-02-01T10:39:45;21.65;;;5.95;;
76157;SDS011;64907;51.574;6.502;2023-02-01T10:42:11;21.58;;;5.25;;
76157;SDS011;64907;51.574;6.502;2023-02-01T10:44:36;17.88;;;4.20;;
76157;SDS011;64907;51.574;6.502;2023-02-01T10:47:08;15.32;;;4.60;;
76157;SDS011;64907;51.574;6.502;2023-02-01T10:49:34;22.85;;;4.80;;
76157;SDS011;64907;51.574;6.502;2023-02-01T10:52:05;22.30;;;4.65;;
76157;SDS011;64907;51.574;6.502;2023-02-01T10:54:34;19.33;;;4.80;;
76157;SDS011;64907;51.574;6.502;2023-02-01T10:56:59;25.00;;;4.22;;
76157;SDS011;64907;51.574;6.502;2023-02-01T10:59:25;17.55;;;4.22;;
76157;SDS011;64907;51.574;6.502;2023-02-01T11:01:58;16.13;;;4.13;;
76157;SDS011;64907;51.574;6.502;2023-02-01T11:04:24;21.35;;;4.80;;
76157;SDS011;64907;51.574;6.502;2023-02-01T11:06:52;15.43;;;4.20;;
76157;SDS011;64907;51.574;6.502;2023-02-01T11:09:19;18.83;;;3.92;;
76157;SDS011;64907;51.574;6.502;2023-02-01T11:14:26;16.88;;;3.60;;
76157;SDS011;64907;51.574;6.502;2023-02-01T11:16:55;23.15;;;4.80;;
76157;SDS011;64907;51.574;6.502;2023-02-01T11:19:22;14.13;;;3.75;;
76157;SDS011;64907;51.574;6.502;2023-02-01T11:21:56;21.33;;;4.60;;
76157;SDS011;64907;51.574;6.502;2023-02-01T11:24:23;15.48;;;4.28;;
76157;SDS011;64907;51.574;6.502;2023-02-01T11:26:48;17.60;;;3.90;;
76157;SDS011;64907;51.574;6.502;2023-02-01T11:29:14;18.73;;;3.72;;
76157;SDS011;64907;51.574;6.502;2023-02-01T11:31:42;21.50;;;4.10;;
76157;SDS011;64907;51.574;6.502;2023-02-01T11:34:12;19.63;;;3.80;;
76157;SDS011;64907;51.574;6.502;2023-02-01T11:36:37;18.60;;;4.30;;
76157;SDS011;64907;51.574;6.502;2023-02-01T11:39:16;14.85;;;3.40;;
76157;SDS011;64907;51.574;6.502;2023-02-01T11:41:43;20.67;;;4.22;;
76157;SDS011;64907;51.574;6.502;2023-02-01T11:44:18;21.20;;;5.07;;
76157;SDS011;64907;51.574;6.502;2023-02-01T11:46:44;17.20;;;4.10;;
76157;SDS011;64907;51.574;6.502;2023-02-01T11:49:28;22.00;;;3.60;;
76157;SDS011;64907;51.574;6.502;2023-02-01T11:56:56;16.48;;;2.85;;
76157;SDS011;64907;51.574;6.502;2023-02-01T12:04:42;15.75;;;3.40;;
76157;SDS011;64907;51.574;6.502;2023-02-01T12:07:19;17.02;;;3.90;;
76157;SDS011;64907;51.574;6.502;2023-02-01T12:17:30;17.13;;;3.83;;
76157;SDS011;64907;51.574;6.502;2023-02-01T12:22:45;16.58;;;4.10;;
76157;SDS011;64907;51.574;6.502;2023-02-01T12:25:20;16.73;;;3.75;;
76157;SDS011;64907;51.574;6.502;2023-02-01T12:33:19;12.40;;;3.15;;
76157;SDS011;64907;51.574;6.502;2023-02-01T12:41:08;17.42;;;3.35;;
76157;SDS011;64907;51.574;6.502;2023-02-01T12:43:45;17.38;;;4.20;;
76157;SDS011;64907;51.574;6.502;2023-02-01T12:48:56;20.40;;;4.28;;
76157;SDS011;64907;51.574;6.502;2023-02-01T12:51:24;16.25;;;4.10;;
76157;SDS011;64907;51.574;6.502;2023-02-01T12:54:00;11.52;;;3.35;;
76157;SDS011;64907;51.574;6.502;2023-02-01T12:56:29;18.70;;;4.13;;
76157;SDS011;64907;51.574;6.502;2023-02-01T12:58:56;15.43;;;3.50;;
76157;SDS011;64907;51.574;6.502;2023-02-01T13:06:43;14.88;;;3.60;;
76157;SDS011;64907;51.574;6.502;2023-02-01T13:11:42;16.23;;;4.13;;
76157;SDS011;64907;51.574;6.502;2023-02-01T13:16:57;14.23;;;3.20;;
76157;SDS011;64907;51.574;6.502;2023-02-01T13:19:41;18.80;;;3.50;;
76157;SDS011;64907;51.574;6.502;2023-02-01T13:22:11;17.52;;;3.20;;
76157;SDS011;64907;51.574;6.502;2023-02-01T13:24:54;16.30;;;3.60;;
76157;SDS011;64907;51.574;6.502;2023-02-01T13:27:21;19.13;;;4.45;;
76157;SDS011;64907;51.574;6.502;2023-02-01T13:29:52;11.77;;;3.80;;
76157;SDS011;64907;51.574;6.502;2023-02-01T13:32:23;14.77;;;4.43;;
76157;SDS011;64907;51.574;6.502;2023-02-01T13:34:57;17.63;;;3.92;;
76157;SDS011;64907;51.574;6.502;2023-02-01T13:40:16;17.83;;;3.85;;
76157;SDS011;64907;51.574;6.502;2023-02-01T13:42:52;14.32;;;3.45;;
76157;SDS011;64907;51.574;6.502;2023-02-01T13:47:53;16.33;;;3.85;;
76157;SDS011;64907;51.574;6.502;2023-02-01T13:50:35;16.50;;;3.80;;
76157;SDS011;64907;51.574;6.502;2023-02-01T13:53:04;18.75;;;3.60;;
76157;SDS011;64907;51.574;6.502;2023-02-01T13:55:37;17.92;;;4.97;;
76157;SDS011;64907;51.574;6.502;2023-02-01T13:58:04;13.50;;;3.80;;
76157;SDS011;64907;51.574;6.502;2023-02-01T14:00:34;12.15;;;3.42;;
76157;SDS011;64907;51.574;6.502;2023-02-01T14:10:48;18.08;;;3.47;;
76157;SDS011;64907;51.574;6.502;2023-02-01T14:13:35;16.33;;;3.97;;
76157;SDS011;64907;51.574;6.502;2023-02-01T14:28:53;11.82;;;2.80;;
76157;SDS011;64907;51.574;6.502;2023-02-01T14:33:53;15.30;;;4.10;;
76157;SDS011;64907;51.574;6.502;2023-02-01T14:36:20;17.45;;;3.88;;
76157;SDS011;64907;51.574;6.502;2023-02-01T14:38:49;20.65;;;4.32;;
76157;SDS011;64907;51.574;6.502;2023-02-01T14:41:31;16.67;;;4.10;;
76157;SDS011;64907;51.574;6.502;2023-02-01T14:49:08;16.60;;;3.83;;
76157;SDS011;64907;51.574;6.502;2023-02-01T14:51:34;17.75;;;3.47;;
76157;SDS011;64907;51.574;6.502;2023-02-01T14:54:00;18.95;;;3.78;;
76157;SDS011;64907;51.574;6.502;2023-02-01T14:56:25;18.38;;;4.00;;
76157;SDS011;64907;51.574;6.502;2023-02-01T15:01:27;15.70;;;4.10;;
76157;SDS011;64907;51.574;6.502;2023-02-01T15:07:06;14.13;;;3.53;;
76157;SDS011;64907;51.574;6.502;2023-02-01T15:09:45;16.48;;;4.00;;
76157;SDS011;64907;51.574;6.502;2023-02-01T15:14:37;17.93;;;3.27;;
76157;SDS011;64907;51.574;6.502;2023-02-01T15:19:53;14.77;;;4.22;;
76157;SDS011;64907;51.574;6.502;2023-02-01T15:22:18;14.88;;;3.63;;
76157;SDS011;64907;51.574;6.502;2023-02-01T15:24:43;13.07;;;3.50;;
76157;SDS011;64907;51.574;6.502;2023-02-01T15:27:08;17.20;;;3.53;;
76157;SDS011;64907;51.574;6.502;2023-02-01T15:29:34;11.30;;;3.60;;
76157;SDS011;64907;51.574;6.502;2023-02-01T15:31:59;18.27;;;4.40;;
76157;SDS011;64907;51.574;6.502;2023-02-01T15:34:43;15.25;;;4.00;;
76157;SDS011;64907;51.574;6.502;2023-02-01T15:37:11;29.52;;;4.78;;
76157;SDS011;64907;51.574;6.502;2023-02-01T15:39:37;14.50;;;4.47;;
76157;SDS011;64907;51.574;6.502;2023-02-01T15:42:22;9.80;;;3.10;;
76157;SDS011;64907;51.574;6.502;2023-02-01T15:44:47;18.90;;;4.55;;
76157;SDS011;64907;51.574;6.502;2023-02-01T15:47:15;18.08;;;3.60;;
76157;SDS011;64907;51.574;6.502;2023-02-01T15:49:41;20.13;;;4.00;;
76157;SDS011;64907;51.574;6.502;2023-02-01T15:52:21;17.98;;;3.67;;
76157;SDS011;64907;51.574;6.502;2023-02-01T15:54:50;23.92;;;4.05;;
76157;SDS011;64907;51.574;6.502;2023-02-01T15:57:25;17.00;;;4.25;;
76157;SDS011;64907;51.574;6.502;2023-02-01T15:59:55;15.90;;;4.10;;
76157;SDS011;64907;51.574;6.502;2023-02-01T16:02:25;28.02;;;4.20;;
76157;SDS011;64907;51.574;6.502;2023-02-01T16:04:50;18.17;;;4.40;;
76157;SDS011;64907;51.574;6.502;2023-02-01T16:10:21;25.00;;;4.25;;
76157;SDS011;64907;51.574;6.502;2023-02-01T16:12:48;18.23;;;4.30;;
76157;SDS011;64907;51.574;6.502;2023-02-01T16:15:21;19.48;;;5.55;;
76157;SDS011;64907;51.574;6.502;2023-02-01T16:17:46;16.45;;;3.88;;
76157;SDS011;64907;51.574;6.502;2023-02-01T16:20:12;12.70;;;3.80;;
76157;SDS011;64907;51.574;6.502;2023-02-01T16:22:37;22.75;;;4.30;;
76157;SDS011;64907;51.574;6.502;2023-02-01T16:27:50;21.60;;;3.90;;
76157;SDS011;64907;51.574;6.502;2023-02-01T16:30:16;18.90;;;4.87;;
76157;SDS011;64907;51.574;6.502;2023-02-01T16:32:43;18.08;;;3.83;;
76157;SDS011;64907;51.574;6.502;2023-02-01T16:37:40;16.83;;;4.60;;
76157;SDS011;64907;51.574;6.502;2023-02-01T16:40:05;11.30;;;3.28;;
76157;SDS011;64907;51.574;6.502;2023-02-01T16:42:37;20.30;;;4.60;;
76157;SDS011;64907;51.574;6.502;2023-02-01T16:45:02;19.52;;;3.85;;
76157;SDS011;64907;51.574;6.502;2023-02-01T16:47:29;24.08;;;4.32;;
76157;SDS011;64907;51.574;6.502;2023-02-01T16:49:54;17.65;;;4.05;;
76157;SDS011;64907;51.574;6.502;2023-02-01T16:54:50;18.23;;;3.47;;
76157;SDS011;64907;51.574;6.502;2023-02-01T16:57:16;26.92;;;5.93;;
76157;SDS011;64907;51.574;6.502;2023-02-01T16:59:44;20.95;;;4.53;;
76157;SDS011;64907;51.574;6.502;2023-02-01T17:02:14;14.75;;;3.30;;
76157;SDS011;64907;51.574;6.502;2023-02-01T17:04:39;15.15;;;3.90;;
76157;SDS011;64907;51.574;6.502;2023-02-01T17:07:04;19.80;;;3.83;;
76157;SDS011;64907;51.574;6.502;2023-02-01T17:09:35;21.08;;;3.60;;
76157;SDS011;64907;51.574;6.502;2023-02-01T17:12:00;12.75;;;3.47;;
76157;SDS011;64907;51.574;6.502;2023-02-01T17:14:25;19.70;;;4.35;;
76157;SDS011;64907;51.574;6.502;2023-02-01T17:16:51;12.63;;;3.33;;
76157;SDS011;64907;51.574;6.502;2023-02-01T17:19:17;12.93;;;3.10;;
76157;SDS011;64907;51.574;6.502;2023-02-01T17:21:47;13.68;;;3.25;;